sensor_id;sensor_type;location;lat;lon;timestamp;P1;durP1;ratioP1;P2;durP2;ratioP2
49416;SDS011;35290;39.550;8.786;2023-02-28T00:00:49;5.57;;;1.90;;
49416;SDS011;35290;39.550;8.786;2023-02-28T00:03:15;6.25;;;1.92;;
49416;SDS011;35290;39.550;8.786;2023-02-28T00:05:40;2.85;;;1.60;;
49416;SDS011;35290;39.550;8.786;2023-02-28T00:08:06;3.65;;;1.83;;
49416;SDS011;35290;39.550;8.786;2023-02-28T00:10:32;4.97;;;1.83;;
49416;SDS011;35290;39.550;8.786;2023-02-28T00:13:04;4.15;;;1.42;;
49416;SDS011;35290;39.550;8.786;2023-02-28T00:17:56;2.90;;;1.33;;
49416;SDS011;35290;39.550;8.786;2023-02-28T00:20:22;7.00;;;1.60;;
49416;SDS011;35290;39.550;8.786;2023-02-28T00:22:49;3.00;;;1.55;;
49416;SDS011;35290;39.550;8.786;2023-02-28T00:25:17;4.65;;;1.70;;
49416;SDS011;35290;39.550;8.786;2023-02-28T00:27:44;5.03;;;1.90;;
49416;SDS011;35290;39.550;8.786;2023-02-28T00:30:11;2.95;;;1.80;;
49416;SDS011;35290;39.550;8.786;2023-02-28T00:32:38;4.28;;;1.80;;
49416;SDS011;35290;39.550;8.786;2023-02-28T00:35:10;5.38;;;2.83;;
49416;SDS011;35290;39.550;8.786;2023-02-28T00:40:01;6.75;;;3.47;;
49416;SDS011;35290;39.550;8.786;2023-02-28T00:42:29;7.20;;;3.22;;
49416;SDS011;35290;39.550;8.786;2023-02-28T00:44:55;5.32;;;3.20;;
49416;SDS011;35290;39.550;8.786;2023-02-28T00:47:21;5.50;;;2.20;;
49416;SDS011;35290;39.550;8.786;2023-02-28T00:49:46;4.80;;;2.47;;
49416;SDS011;35290;39.550;8.786;2023-02-28T00:52:12;4.63;;;2.25;;
49416;SDS011;35290;39.550;8.786;2023-02-28T00:54:37;7.20;;;1.85;;
49416;SDS011;35290;39.550;8.786;2023-02-28T00:57:03;4.18;;;1.90;;
49416;SDS011;35290;39.550;8.786;2023-02-28T00:59:28;5.22;;;1.75;;
49416;SDS011;35290;39.550;8.786;2023-02-28T01:01:53;3.72;;;1.70;;
49416;SDS011;35290;39.550;8.786;2023-02-28T01:04:19;3.40;;;1.70;;
49416;SDS011;35290;39.550;8.786;2023-02-28T01:06:45;6.25;;;2.55;;
49416;SDS011;35290;39.550;8.786;2023-02-28T01:09:10;5.25;;;2.38;;
49416;SDS011;35290;39.550;8.786;2023-02-28T01:11:36;4.57;;;2.30;;
49416;SDS011;35290;39.550;8.786;2023-02-28T01:14:03;4.43;;;1.70;;
49416;SDS011;35290;39.550;8.786;2023-02-28T01:16:29;3.33;;;1.52;;
49416;SDS011;35290;39.550;8.786;2023-02-28T01:18:55;4.10;;;1.70;;
49416;SDS011;35290;39.550;8.786;2023-02-28T01:21:21;4.10;;;1.52;;
49416;SDS011;35290;39.550;8.786;2023-02-28T01:23:47;3.60;;;1.63;;
49416;SDS011;35290;39.550;8.786;2023-02-28T01:26:17;3.40;;;1.40;;
49416;SDS011;35290;39.550;8.786;2023-02-28T01:28:46;2.55;;;1.48;;
49416;SDS011;35290;39.550;8.786;2023-02-28T01:31:12;3.92;;;2.58;;
49416;SDS011;35290;39.550;8.786;2023-02-28T01:33:38;8.07;;;4.28;;
49416;SDS011;35290;39.550;8.786;2023-02-28T01:36:10;5.30;;;3.80;;
49416;SDS011;35290;39.550;8.786;2023-02-28T01:38:37;7.60;;;4.18;;
49416;SDS011;35290;39.550;8.786;2023-02-28T01:41:03;5.40;;;3.22;;
49416;SDS011;35290;39.550;8.786;2023-02-28T01:43:31;7.53;;;2.90;;
49416;SDS011;35290;39.550;8.786;2023-02-28T01:46:01;4.43;;;1.88;;
49416;SDS011;35290;39.550;8.786;2023-02-28T01:48:31;3.78;;;1.90;;
49416;SDS011;35290;39.550;8.786;2023-02-28T01:50:59;3.67;;;1.60;;
49416;SDS011;35290;39.550;8.786;2023-02-28T01:53:32;2.65;;;1.27;;
49416;SDS011;35290;39.550;8.786;2023-02-28T01:56:00;2.50;;;1.23;;
49416;SDS011;35290;39.550;8.786;2023-02-28T01:58:29;5.55;;;1.50;;
49416;SDS011;35290;39.550;8.786;2023-02-28T02:00:55;2.80;;;1.30;;
49416;SDS011;35290;39.550;8.786;2023-02-28T02:03:22;2.67;;;1.30;;
49416;SDS011;35290;39.550;8.786;2023-02-28T02:05:48;2.78;;;1.48;;
49416;SDS011;35290;39.550;8.786;2023-02-28T02:08:21;2.70;;;1.00;;
49416;SDS011;35290;39.550;8.786;2023-02-28T02:10:49;2.28;;;1.08;;
49416;SDS011;35290;39.550;8.786;2023-02-28T02:30:33;1.52;;;0.70;;
49416;SDS011;35290;39.550;8.786;2023-02-28T02:35:58;1.48;;;1.08;;
49416;SDS011;35290;39.550;8.786;2023-02-28T02:38:40;0.77;;;0.70;;
49416;SDS011;35290;39.550;8.786;2023-02-28T02:41:14;2.35;;;0.90;;
49416;SDS011;35290;39.550;8.786;2023-02-28T02:43:52;1.02;;;0.80;;
49416;SDS011;35290;39.550;8.786;2023-02-28T02:46:23;1.52;;;0.88;;
49416;SDS011;35290;39.550;8.786;2023-02-28T02:49:05;1.75;;;1.02;;
49416;SDS011;35290;39.550;8.786;2023-02-28T02:51:32;1.02;;;0.80;;
49416;SDS011;35290;39.550;8.786;2023-02-28T02:54:06;1.70;;;0.90;;
49416;SDS011;35290;39.550;8.786;2023-02-28T02:56:34;1.75;;;0.93;;
49416;SDS011;35290;39.550;8.786;2023-02-28T02:59:02;1.73;;;0.90;;
49416;SDS011;35290;39.550;8.786;2023-02-28T03:01:29;1.55;;;0.70;;
49416;SDS011;35290;39.550;8.786;2023-02-28T03:03:59;1.92;;;0.82;;
49416;SDS011;35290;39.550;8.786;2023-02-28T03:06:27;2.28;;;0.93;;
49416;SDS011;35290;39.550;8.786;2023-02-28T03:08:53;1.95;;;0.90;;
49416;SDS011;35290;39.550;8.786;2023-02-28T03:11:18;1.23;;;0.80;;
49416;SDS011;35290;39.550;8.786;2023-02-28T03:13:54;1.60;;;0.63;;
49416;SDS011;35290;39.550;8.786;2023-02-28T03:21:54;2.08;;;0.90;;
49416;SDS011;35290;39.550;8.786;2023-02-28T03:24:25;9.57;;;3.50;;
49416;SDS011;35290;39.550;8.786;2023-02-28T03:26:58;3.70;;;2.05;;
49416;SDS011;35290;39.550;8.786;2023-02-28T03:32:44;3.45;;;1.60;;
49416;SDS011;35290;39.550;8.786;2023-02-28T03:37:32;2.78;;;1.33;;
49416;SDS011;35290;39.550;8.786;2023-02-28T03:40:08;2.22;;;1.60;;
49416;SDS011;35290;39.550;8.786;2023-02-28T03:42:38;2.00;;;1.55;;
49416;SDS011;35290;39.550;8.786;2023-02-28T03:45:08;3.08;;;2.20;;
49416;SDS011;35290;39.550;8.786;2023-02-28T03:47:46;3.63;;;2.13;;
49416;SDS011;35290;39.550;8.786;2023-02-28T03:50:20;4.35;;;2.58;;
49416;SDS011;35290;39.550;8.786;2023-02-28T03:52:52;3.03;;;2.00;;
49416;SDS011;35290;39.550;8.786;2023-02-28T03:55:26;3.00;;;2.00;;
49416;SDS011;35290;39.550;8.786;2023-02-28T04:01:09;2.47;;;1.37;;
49416;SDS011;35290;39.550;8.786;2023-02-28T04:03:16;2.80;;;1.67;;
49416;SDS011;35290;39.550;8.786;2023-02-28T04:05:46;1.50;;;1.30;;
49416;SDS011;35290;39.550;8.786;2023-02-28T04:08:15;1.88;;;1.17;;
49416;SDS011;35290;39.550;8.786;2023-02-28T04:10:41;2.97;;;1.08;;
49416;SDS011;35290;39.550;8.786;2023-02-28T04:13:08;3.30;;;1.27;;
49416;SDS011;35290;39.550;8.786;2023-02-28T04:15:34;1.95;;;1.02;;
49416;SDS011;35290;39.550;8.786;2023-02-28T04:17:59;2.17;;;1.10;;
49416;SDS011;35290;39.550;8.786;2023-02-28T04:20:25;1.50;;;0.90;;
49416;SDS011;35290;39.550;8.786;2023-02-28T04:22:50;2.70;;;1.05;;
49416;SDS011;35290;39.550;8.786;2023-02-28T04:25:16;1.63;;;0.95;;
49416;SDS011;35290;39.550;8.786;2023-02-28T04:27:41;5.00;;;2.13;;
49416;SDS011;35290;39.550;8.786;2023-02-28T04:30:09;3.78;;;2.67;;
49416;SDS011;35290;39.550;8.786;2023-02-28T04:32:35;7.30;;;3.40;;
49416;SDS011;35290;39.550;8.786;2023-02-28T04:35:01;2.95;;;1.95;;
49416;SDS011;35290;39.550;8.786;2023-02-28T04:37:27;3.92;;;1.33;;
49416;SDS011;35290;39.550;8.786;2023-02-28T04:39:53;2.30;;;1.25;;
49416;SDS011;35290;39.550;8.786;2023-02-28T04:42:19;2.35;;;1.85;;
49416;SDS011;35290;39.550;8.786;2023-02-28T04:44:45;3.20;;;2.10;;
49416;SDS011;35290;39.550;8.786;2023-02-28T04:47:12;2.47;;;2.10;;
49416;SDS011;35290;39.550;8.786;2023-02-28T04:49:37;4.55;;;2.08;;
49416;SDS011;35290;39.550;8.786;2023-02-28T04:52:03;2.70;;;1.85;;
49416;SDS011;35290;39.550;8.786;2023-02-28T04:54:29;4.13;;;1.83;;
49416;SDS011;35290;39.550;8.786;2023-02-28T04:56:54;2.03;;;1.30;;
49416;SDS011;35290;39.550;8.786;2023-02-28T04:59:20;2.03;;;1.48;;
49416;SDS011;35290;39.550;8.786;2023-02-28T05:01:46;3.33;;;2.20;;
49416;SDS011;35290;39.550;8.786;2023-02-28T05:04:13;2.25;;;1.80;;
49416;SDS011;35290;39.550;8.786;2023-02-28T05:06:39;3.55;;;1.95;;
49416;SDS011;35290;39.550;8.786;2023-02-28T05:09:04;2.83;;;2.00;;
49416;SDS011;35290;39.550;8.786;2023-02-28T05:11:30;3.55;;;2.15;;
49416;SDS011;35290;39.550;8.786;2023-02-28T05:14:05;2.60;;;1.90;;
49416;SDS011;35290;39.550;8.786;2023-02-28T05:16:32;4.00;;;1.80;;
49416;SDS011;35290;39.550;8.786;2023-02-28T05:18:58;3.30;;;2.50;;
49416;SDS011;35290;39.550;8.786;2023-02-28T05:23:49;2.85;;;1.77;;
49416;SDS011;35290;39.550;8.786;2023-02-28T05:26:15;2.85;;;1.70;;
49416;SDS011;35290;39.550;8.786;2023-02-28T05:28:40;1.70;;;1.20;;
49416;SDS011;35290;39.550;8.786;2023-02-28T05:31:05;1.67;;;1.35;;
49416;SDS011;35290;39.550;8.786;2023-02-28T05:33:31;2.13;;;1.45;;
49416;SDS011;35290;39.550;8.786;2023-02-28T05:35:56;3.55;;;1.90;;
49416;SDS011;35290;39.550;8.786;2023-02-28T05:38:22;3.88;;;2.03;;
49416;SDS011;35290;39.550;8.786;2023-02-28T05:40:48;3.95;;;2.03;;
49416;SDS011;35290;39.550;8.786;2023-02-28T05:43:13;4.70;;;2.20;;
49416;SDS011;35290;39.550;8.786;2023-02-28T05:45:39;5.03;;;2.97;;
49416;SDS011;35290;39.550;8.786;2023-02-28T05:48:04;5.15;;;2.92;;
49416;SDS011;35290;39.550;8.786;2023-02-28T05:50:30;4.60;;;2.72;;
49416;SDS011;35290;39.550;8.786;2023-02-28T05:52:55;4.38;;;2.50;;
49416;SDS011;35290;39.550;8.786;2023-02-28T05:55:21;3.58;;;2.00;;
49416;SDS011;35290;39.550;8.786;2023-02-28T05:57:46;5.25;;;2.13;;
49416;SDS011;35290;39.550;8.786;2023-02-28T06:00:12;5.13;;;2.05;;
49416;SDS011;35290;39.550;8.786;2023-02-28T06:02:40;2.88;;;1.58;;
49416;SDS011;35290;39.550;8.786;2023-02-28T06:05:07;5.53;;;1.90;;
49416;SDS011;35290;39.550;8.786;2023-02-28T06:07:39;5.60;;;1.80;;
49416;SDS011;35290;39.550;8.786;2023-02-28T06:10:04;5.93;;;2.10;;
49416;SDS011;35290;39.550;8.786;2023-02-28T06:12:30;7.80;;;2.33;;
49416;SDS011;35290;39.550;8.786;2023-02-28T06:14:55;4.53;;;1.92;;
49416;SDS011;35290;39.550;8.786;2023-02-28T06:17:21;5.95;;;2.00;;
49416;SDS011;35290;39.550;8.786;2023-02-28T06:19:46;6.15;;;2.25;;
49416;SDS011;35290;39.550;8.786;2023-02-28T06:22:13;6.38;;;2.67;;
49416;SDS011;35290;39.550;8.786;2023-02-28T06:24:38;5.97;;;3.05;;
49416;SDS011;35290;39.550;8.786;2023-02-28T06:27:04;6.53;;;3.45;;
49416;SDS011;35290;39.550;8.786;2023-02-28T06:29:31;10.77;;;4.75;;
49416;SDS011;35290;39.550;8.786;2023-02-28T06:31:57;7.70;;;3.90;;
49416;SDS011;35290;39.550;8.786;2023-02-28T06:34:23;8.70;;;4.15;;
49416;SDS011;35290;39.550;8.786;2023-02-28T06:36:49;5.53;;;2.83;;
49416;SDS011;35290;39.550;8.786;2023-02-28T06:39:15;6.18;;;3.88;;
49416;SDS011;35290;39.550;8.786;2023-02-28T06:41:41;6.53;;;3.88;;
49416;SDS011;35290;39.550;8.786;2023-02-28T06:44:13;7.85;;;4.07;;
49416;SDS011;35290;39.550;8.786;2023-02-28T06:46:40;5.95;;;3.30;;
49416;SDS011;35290;39.550;8.786;2023-02-28T06:49:07;4.82;;;3.10;;
49416;SDS011;35290;39.550;8.786;2023-02-28T06:51:36;5.15;;;2.70;;
49416;SDS011;35290;39.550;8.786;2023-02-28T06:54:09;4.90;;;2.58;;
49416;SDS011;35290;39.550;8.786;2023-02-28T06:56:35;6.82;;;2.63;;
49416;SDS011;35290;39.550;8.786;2023-02-28T06:59:00;6.57;;;2.78;;
49416;SDS011;35290;39.550;8.786;2023-02-28T07:01:26;5.65;;;2.75;;
49416;SDS011;35290;39.550;8.786;2023-02-28T07:03:53;6.72;;;2.70;;
49416;SDS011;35290;39.550;8.786;2023-02-28T07:06:19;6.63;;;2.55;;
49416;SDS011;35290;39.550;8.786;2023-02-28T07:08:47;5.53;;;2.20;;
49416;SDS011;35290;39.550;8.786;2023-02-28T07:11:13;8.40;;;2.75;;
49416;SDS011;35290;39.550;8.786;2023-02-28T07:13:39;8.30;;;2.60;;
49416;SDS011;35290;39.550;8.786;2023-02-28T07:16:06;6.70;;;2.47;;
49416;SDS011;35290;39.550;8.786;2023-02-28T07:18:35;9.35;;;3.92;;
49416;SDS011;35290;39.550;8.786;2023-02-28T07:21:01;8.38;;;4.15;;
49416;SDS011;35290;39.550;8.786;2023-02-28T07:23:27;7.70;;;3.67;;
49416;SDS011;35290;39.550;8.786;2023-02-28T07:25:53;10.13;;;4.32;;
49416;SDS011;35290;39.550;8.786;2023-02-28T07:28:18;9.07;;;3.60;;
49416;SDS011;35290;39.550;8.786;2023-02-28T07:30:44;6.22;;;3.50;;
49416;SDS011;35290;39.550;8.786;2023-02-28T07:33:09;9.18;;;3.90;;
49416;SDS011;35290;39.550;8.786;2023-02-28T07:35:35;8.23;;;4.13;;
49416;SDS011;35290;39.550;8.786;2023-02-28T07:38:01;9.50;;;4.63;;
49416;SDS011;35290;39.550;8.786;2023-02-28T07:40:28;8.35;;;3.70;;
49416;SDS011;35290;39.550;8.786;2023-02-28T07:42:53;9.80;;;5.00;;
49416;SDS011;35290;39.550;8.786;2023-02-28T07:45:19;12.35;;;5.47;;
49416;SDS011;35290;39.550;8.786;2023-02-28T07:47:44;24.30;;;10.00;;
49416;SDS011;35290;39.550;8.786;2023-02-28T07:50:11;12.82;;;6.68;;
49416;SDS011;35290;39.550;8.786;2023-02-28T07:52:38;17.20;;;6.40;;
49416;SDS011;35290;39.550;8.786;2023-02-28T07:55:05;12.82;;;6.03;;
49416;SDS011;35290;39.550;8.786;2023-02-28T07:57:31;12.52;;;6.05;;
49416;SDS011;35290;39.550;8.786;2023-02-28T07:59:57;11.35;;;5.35;;
49416;SDS011;35290;39.550;8.786;2023-02-28T08:02:22;5.55;;;3.90;;
49416;SDS011;35290;39.550;8.786;2023-02-28T08:04:48;8.10;;;4.45;;
49416;SDS011;35290;39.550;8.786;2023-02-28T08:07:14;8.60;;;3.72;;
49416;SDS011;35290;39.550;8.786;2023-02-28T08:09:41;7.88;;;3.20;;
49416;SDS011;35290;39.550;8.786;2023-02-28T08:12:07;12.38;;;4.25;;
49416;SDS011;35290;39.550;8.786;2023-02-28T08:14:33;8.57;;;3.85;;
49416;SDS011;35290;39.550;8.786;2023-02-28T08:16:58;6.63;;;3.72;;
49416;SDS011;35290;39.550;8.786;2023-02-28T08:19:24;8.30;;;4.18;;
49416;SDS011;35290;39.550;8.786;2023-02-28T08:21:49;8.50;;;3.63;;
49416;SDS011;35290;39.550;8.786;2023-02-28T08:24:15;6.75;;;3.75;;
49416;SDS011;35290;39.550;8.786;2023-02-28T08:26:41;13.10;;;4.20;;
49416;SDS011;35290;39.550;8.786;2023-02-28T08:29:06;10.20;;;5.22;;
49416;SDS011;35290;39.550;8.786;2023-02-28T08:31:32;12.23;;;5.97;;
49416;SDS011;35290;39.550;8.786;2023-02-28T08:33:57;10.70;;;5.28;;
49416;SDS011;35290;39.550;8.786;2023-02-28T08:36:24;9.98;;;4.78;;
49416;SDS011;35290;39.550;8.786;2023-02-28T08:38:51;15.68;;;9.90;;
49416;SDS011;35290;39.550;8.786;2023-02-28T08:41:16;29.63;;;16.10;;
49416;SDS011;35290;39.550;8.786;2023-02-28T08:43:43;15.43;;;9.55;;
49416;SDS011;35290;39.550;8.786;2023-02-28T08:46:11;13.88;;;7.07;;
49416;SDS011;35290;39.550;8.786;2023-02-28T08:48:38;14.32;;;7.60;;
49416;SDS011;35290;39.550;8.786;2023-02-28T08:51:05;19.45;;;9.68;;
49416;SDS011;35290;39.550;8.786;2023-02-28T08:53:32;21.23;;;12.68;;
49416;SDS011;35290;39.550;8.786;2023-02-28T08:56:02;21.20;;;10.63;;
49416;SDS011;35290;39.550;8.786;2023-02-28T08:58:37;25.63;;;14.93;;
49416;SDS011;35290;39.550;8.786;2023-02-28T09:01:10;21.35;;;13.73;;
49416;SDS011;35290;39.550;8.786;2023-02-28T09:03:40;20.73;;;12.95;;
49416;SDS011;35290;39.550;8.786;2023-02-28T09:06:07;16.80;;;10.00;;
49416;SDS011;35290;39.550;8.786;2023-02-28T09:08:33;21.17;;;10.02;;
49416;SDS011;35290;39.550;8.786;2023-02-28T09:10:58;13.30;;;7.22;;
49416;SDS011;35290;39.550;8.786;2023-02-28T09:13:25;13.15;;;6.60;;
49416;SDS011;35290;39.550;8.786;2023-02-28T09:15:51;9.52;;;6.13;;
49416;SDS011;35290;39.550;8.786;2023-02-28T09:18:17;15.40;;;6.90;;
49416;SDS011;35290;39.550;8.786;2023-02-28T09:20:43;13.40;;;7.38;;
49416;SDS011;35290;39.550;8.786;2023-02-28T09:23:09;15.75;;;8.32;;
49416;SDS011;35290;39.550;8.786;2023-02-28T09:25:36;15.80;;;8.73;;
49416;SDS011;35290;39.550;8.786;2023-02-28T09:28:02;13.18;;;8.65;;
49416;SDS011;35290;39.550;8.786;2023-02-28T09:30:28;11.38;;;5.32;;
49416;SDS011;35290;39.550;8.786;2023-02-28T09:32:54;13.95;;;6.35;;
49416;SDS011;35290;39.550;8.786;2023-02-28T09:35:23;17.45;;;7.45;;
49416;SDS011;35290;39.550;8.786;2023-02-28T09:37:50;15.55;;;8.55;;
49416;SDS011;35290;39.550;8.786;2023-02-28T09:40:21;18.65;;;10.07;;
49416;SDS011;35290;39.550;8.786;2023-02-28T09:42:48;14.90;;;9.15;;
49416;SDS011;35290;39.550;8.786;2023-02-28T09:45:22;15.80;;;7.38;;
49416;SDS011;35290;39.550;8.786;2023-02-28T09:47:50;16.23;;;9.65;;
49416;SDS011;35290;39.550;8.786;2023-02-28T09:50:40;16.30;;;8.13;;
49416;SDS011;35290;39.550;8.786;2023-02-28T09:53:21;9.95;;;6.40;;
49416;SDS011;35290;39.550;8.786;2023-02-28T09:55:53;11.52;;;6.70;;
49416;SDS011;35290;39.550;8.786;2023-02-28T10:04:28;8.32;;;5.13;;
49416;SDS011;35290;39.550;8.786;2023-02-28T10:07:07;12.30;;;4.00;;
49416;SDS011;35290;39.550;8.786;2023-02-28T10:09:59;8.93;;;4.30;;
49416;SDS011;35290;39.550;8.786;2023-02-28T10:12:30;9.65;;;4.75;;
49416;SDS011;35290;39.550;8.786;2023-02-28T10:14:57;9.27;;;3.63;;
49416;SDS011;35290;39.550;8.786;2023-02-28T10:17:25;9.52;;;3.85;;
49416;SDS011;35290;39.550;8.786;2023-02-28T10:20:02;8.98;;;4.43;;
49416;SDS011;35290;39.550;8.786;2023-02-28T10:22:38;7.10;;;3.67;;
49416;SDS011;35290;39.550;8.786;2023-02-28T10:25:16;14.93;;;7.03;;
49416;SDS011;35290;39.550;8.786;2023-02-28T10:27:44;10.63;;;6.05;;
49416;SDS011;35290;39.550;8.786;2023-02-28T10:30:10;14.05;;;7.28;;
49416;SDS011;35290;39.550;8.786;2023-02-28T10:32:37;13.32;;;7.47;;
49416;SDS011;35290;39.550;8.786;2023-02-28T10:35:22;11.50;;;6.32;;
49416;SDS011;35290;39.550;8.786;2023-02-28T10:37:53;13.95;;;6.60;;
49416;SDS011;35290;39.550;8.786;2023-02-28T10:43:34;9.02;;;5.60;;
49416;SDS011;35290;39.550;8.786;2023-02-28T10:45:51;8.23;;;4.80;;
49416;SDS011;35290;39.550;8.786;2023-02-28T10:48:33;7.40;;;3.78;;
49416;SDS011;35290;39.550;8.786;2023-02-28T10:51:01;9.77;;;4.43;;
49416;SDS011;35290;39.550;8.786;2023-02-28T10:53:48;9.05;;;4.00;;
49416;SDS011;35290;39.550;8.786;2023-02-28T10:56:16;7.25;;;3.67;;
49416;SDS011;35290;39.550;8.786;2023-02-28T11:03:57;5.53;;;2.95;;
49416;SDS011;35290;39.550;8.786;2023-02-28T11:06:23;6.70;;;3.40;;
49416;SDS011;35290;39.550;8.786;2023-02-28T11:08:53;9.45;;;4.10;;
49416;SDS011;35290;39.550;8.786;2023-02-28T11:11:21;13.55;;;5.90;;
49416;SDS011;35290;39.550;8.786;2023-02-28T11:13:49;11.27;;;5.40;;
49416;SDS011;35290;39.550;8.786;2023-02-28T11:16:16;12.85;;;4.72;;
49416;SDS011;35290;39.550;8.786;2023-02-28T11:21:08;10.85;;;5.63;;
49416;SDS011;35290;39.550;8.786;2023-02-28T11:23:35;11.85;;;4.20;;
49416;SDS011;35290;39.550;8.786;2023-02-28T11:26:02;13.23;;;5.00;;
49416;SDS011;35290;39.550;8.786;2023-02-28T11:28:36;11.30;;;6.78;;
49416;SDS011;35290;39.550;8.786;2023-02-28T11:33:43;12.95;;;6.40;;
49416;SDS011;35290;39.550;8.786;2023-02-28T11:36:14;12.13;;;4.00;;
49416;SDS011;35290;39.550;8.786;2023-02-28T11:38:41;10.88;;;6.30;;
49416;SDS011;35290;39.550;8.786;2023-02-28T11:44:21;8.88;;;4.35;;
49416;SDS011;35290;39.550;8.786;2023-02-28T11:46:59;13.80;;;4.60;;
49416;SDS011;35290;39.550;8.786;2023-02-28T11:51:59;13.48;;;5.53;;
49416;SDS011;35290;39.550;8.786;2023-02-28T11:55:07;16.02;;;5.68;;
49416;SDS011;35290;39.550;8.786;2023-02-28T12:03:08;42.37;;;20.27;;
49416;SDS011;35290;39.550;8.786;2023-02-28T12:05:46;26.90;;;15.77;;
49416;SDS011;35290;39.550;8.786;2023-02-28T12:13:44;18.42;;;7.28;;
49416;SDS011;35290;39.550;8.786;2023-02-28T12:16:22;15.48;;;7.25;;
49416;SDS011;35290;39.550;8.786;2023-02-28T12:19:09;12.45;;;5.97;;
49416;SDS011;35290;39.550;8.786;2023-02-28T12:27:37;15.95;;;6.32;;
49416;SDS011;35290;39.550;8.786;2023-02-28T12:30:16;15.73;;;6.88;;
49416;SDS011;35290;39.550;8.786;2023-02-28T12:32:46;13.35;;;4.38;;
49416;SDS011;35290;39.550;8.786;2023-02-28T12:35:16;19.45;;;4.88;;
49416;SDS011;35290;39.550;8.786;2023-02-28T12:37:46;14.05;;;5.57;;
49416;SDS011;35290;39.550;8.786;2023-02-28T12:40:19;14.05;;;4.68;;
49416;SDS011;35290;39.550;8.786;2023-02-28T12:42:48;11.80;;;3.53;;
49416;SDS011;35290;39.550;8.786;2023-02-28T12:45:18;11.63;;;4.43;;
49416;SDS011;35290;39.550;8.786;2023-02-28T12:47:46;9.25;;;3.97;;
49416;SDS011;35290;39.550;8.786;2023-02-28T12:50:16;12.85;;;3.85;;
49416;SDS011;35290;39.550;8.786;2023-02-28T12:56:16;12.02;;;4.32;;
49416;SDS011;35290;39.550;8.786;2023-02-28T12:58:51;11.25;;;4.95;;
49416;SDS011;35290;39.550;8.786;2023-02-28T13:09:53;75.15;;;36.17;;
49416;SDS011;35290;39.550;8.786;2023-02-28T13:12:20;48.08;;;24.30;;
49416;SDS011;35290;39.550;8.786;2023-02-28T13:14:48;23.33;;;12.32;;
49416;SDS011;35290;39.550;8.786;2023-02-28T13:17:21;20.10;;;9.05;;
49416;SDS011;35290;39.550;8.786;2023-02-28T13:22:20;13.50;;;7.07;;
49416;SDS011;35290;39.550;8.786;2023-02-28T13:25:49;10.65;;;5.55;;
49416;SDS011;35290;39.550;8.786;2023-02-28T13:27:49;11.30;;;5.97;;
49416;SDS011;35290;39.550;8.786;2023-02-28T13:35:44;16.35;;;9.32;;
49416;SDS011;35290;39.550;8.786;2023-02-28T13:38:24;14.25;;;9.05;;
49416;SDS011;35290;39.550;8.786;2023-02-28T13:41:31;11.38;;;6.57;;
49416;SDS011;35290;39.550;8.786;2023-02-28T13:44:03;16.25;;;7.63;;
49416;SDS011;35290;39.550;8.786;2023-02-28T13:46:29;13.02;;;6.20;;
49416;SDS011;35290;39.550;8.786;2023-02-28T13:57:04;2.22;;;1.45;;
49416;SDS011;35290;39.550;8.786;2023-02-28T13:59:40;14.60;;;8.15;;
49416;SDS011;35290;39.550;8.786;2023-02-28T14:05:41;4.93;;;3.17;;
49416;SDS011;35290;39.550;8.786;2023-02-28T14:08:17;8.68;;;4.82;;
49416;SDS011;35290;39.550;8.786;2023-02-28T14:10:46;18.00;;;11.27;;
49416;SDS011;35290;39.550;8.786;2023-02-28T14:13:36;9.05;;;5.88;;
49416;SDS011;35290;39.550;8.786;2023-02-28T14:16:09;9.52;;;6.40;;
49416;SDS011;35290;39.550;8.786;2023-02-28T14:18:42;6.32;;;4.25;;
49416;SDS011;35290;39.550;8.786;2023-02-28T14:21:28;4.95;;;1.90;;
49416;SDS011;35290;39.550;8.786;2023-02-28T14:24:05;3.00;;;2.00;;
49416;SDS011;35290;39.550;8.786;2023-02-28T14:26:58;3.97;;;2.30;;
49416;SDS011;35290;39.550;8.786;2023-02-28T14:37:49;2.13;;;1.40;;
49416;SDS011;35290;39.550;8.786;2023-02-28T14:40:16;3.40;;;2.17;;
49416;SDS011;35290;39.550;8.786;2023-02-28T14:42:56;3.10;;;2.20;;
49416;SDS011;35290;39.550;8.786;2023-02-28T14:45:22;2.45;;;1.55;;
49416;SDS011;35290;39.550;8.786;2023-02-28T14:47:49;1.95;;;1.33;;
49416;SDS011;35290;39.550;8.786;2023-02-28T14:50:19;2.55;;;1.80;;
49416;SDS011;35290;39.550;8.786;2023-02-28T14:52:47;9.48;;;4.35;;
49416;SDS011;35290;39.550;8.786;2023-02-28T14:55:14;10.52;;;6.70;;
49416;SDS011;35290;39.550;8.786;2023-02-28T14:57:56;14.07;;;7.05;;
49416;SDS011;35290;39.550;8.786;2023-02-28T15:00:29;11.70;;;6.32;;
49416;SDS011;35290;39.550;8.786;2023-02-28T15:02:57;12.32;;;6.35;;
49416;SDS011;35290;39.550;8.786;2023-02-28T15:05:32;13.20;;;6.97;;
49416;SDS011;35290;39.550;8.786;2023-02-28T15:08:06;11.35;;;6.35;;
49416;SDS011;35290;39.550;8.786;2023-02-28T15:10:40;8.68;;;5.70;;
49416;SDS011;35290;39.550;8.786;2023-02-28T15:13:10;12.23;;;5.35;;
49416;SDS011;35290;39.550;8.786;2023-02-28T15:15:56;12.20;;;5.95;;
49416;SDS011;35290;39.550;8.786;2023-02-28T15:18:33;9.00;;;5.72;;
49416;SDS011;35290;39.550;8.786;2023-02-28T15:21:10;14.50;;;6.60;;
49416;SDS011;35290;39.550;8.786;2023-02-28T15:23:39;16.40;;;7.30;;
49416;SDS011;35290;39.550;8.786;2023-02-28T15:26:06;16.67;;;7.60;;
49416;SDS011;35290;39.550;8.786;2023-02-28T15:28:31;11.43;;;6.55;;
49416;SDS011;35290;39.550;8.786;2023-02-28T15:33:26;10.73;;;6.68;;
49416;SDS011;35290;39.550;8.786;2023-02-28T15:38:33;11.30;;;6.00;;
49416;SDS011;35290;39.550;8.786;2023-02-28T15:41:00;9.43;;;5.53;;
49416;SDS011;35290;39.550;8.786;2023-02-28T15:43:29;11.50;;;6.40;;
49416;SDS011;35290;39.550;8.786;2023-02-28T15:46:02;11.13;;;6.60;;
49416;SDS011;35290;39.550;8.786;2023-02-28T15:51:32;8.85;;;4.80;;
49416;SDS011;35290;39.550;8.786;2023-02-28T15:54:04;13.73;;;7.45;;
49416;SDS011;35290;39.550;8.786;2023-02-28T15:56:33;14.30;;;7.30;;
49416;SDS011;35290;39.550;8.786;2023-02-28T15:59:03;19.27;;;9.18;;
49416;SDS011;35290;39.550;8.786;2023-02-28T16:01:37;14.82;;;8.90;;
49416;SDS011;35290;39.550;8.786;2023-02-28T16:04:05;20.80;;;11.43;;
49416;SDS011;35290;39.550;8.786;2023-02-28T16:06:53;18.83;;;13.25;;
49416;SDS011;35290;39.550;8.786;2023-02-28T16:09:27;19.92;;;12.52;;
49416;SDS011;35290;39.550;8.786;2023-02-28T16:11:55;19.98;;;12.70;;
49416;SDS011;35290;39.550;8.786;2023-02-28T16:14:23;20.00;;;12.98;;
49416;SDS011;35290;39.550;8.786;2023-02-28T16:16:53;18.77;;;12.90;;
49416;SDS011;35290;39.550;8.786;2023-02-28T16:19:20;61.42;;;33.35;;
49416;SDS011;35290;39.550;8.786;2023-02-28T16:21:46;58.53;;;33.00;;
49416;SDS011;35290;39.550;8.786;2023-02-28T16:24:12;57.83;;;32.38;;
49416;SDS011;35290;39.550;8.786;2023-02-28T16:26:39;38.92;;;23.52;;
49416;SDS011;35290;39.550;8.786;2023-02-28T16:29:06;34.35;;;21.48;;
49416;SDS011;35290;39.550;8.786;2023-02-28T16:31:33;34.50;;;21.27;;
49416;SDS011;35290;39.550;8.786;2023-02-28T16:34:01;36.15;;;20.15;;
49416;SDS011;35290;39.550;8.786;2023-02-28T16:36:26;26.67;;;14.68;;
49416;SDS011;35290;39.550;8.786;2023-02-28T16:38:53;26.77;;;16.40;;
49416;SDS011;35290;39.550;8.786;2023-02-28T16:41:20;23.92;;;14.15;;
49416;SDS011;35290;39.550;8.786;2023-02-28T16:43:48;18.83;;;12.07;;
49416;SDS011;35290;39.550;8.786;2023-02-28T16:46:15;18.05;;;12.13;;
49416;SDS011;35290;39.550;8.786;2023-02-28T16:48:41;19.55;;;12.38;;
49416;SDS011;35290;39.550;8.786;2023-02-28T16:51:11;19.42;;;11.45;;
49416;SDS011;35290;39.550;8.786;2023-02-28T16:53:38;16.85;;;10.55;;
49416;SDS011;35290;39.550;8.786;2023-02-28T16:56:03;18.08;;;12.32;;
49416;SDS011;35290;39.550;8.786;2023-02-28T16:58:32;18.95;;;12.73;;
49416;SDS011;35290;39.550;8.786;2023-02-28T17:01:00;22.10;;;13.80;;
49416;SDS011;35290;39.550;8.786;2023-02-28T17:03:27;21.33;;;14.20;;